Time;durP1;ratioP1;P1;durP2;ratioP2;P2;SDS_P1;SDS_P2;PMS_P1;PMS_P2;Temp;Humidity;BMP_temperature;BMP_pressure;BME280_temperature;BME280_humidity;BME280_pressure;Samples;Min_cycle;Max_cycle;Signal;HPM_P1;HPM_P2
2021/05/01 00:00:47;;;;;;;59.60;38.80;;;;;;;;;;5014412;28;20201;-58
2021/05/01 00:03:13;;;;;;;61.37;38.83;;;;;;;;;;5015931;28;20227;-59
2021/05/01 00:05:40;;;;;;;57.63;37.93;;;;;;;;;;5015903;28;20208;-60
2021/05/01 00:08:06;;;;;;;60.60;41.33;;;;;;;;;;5016239;28;20216;-61
2021/05/01 00:10:33;;;;;;;68.77;42.73;;;;;;;;;;5015158;28;20282;-59
2021/05/01 00:13:00;;;;;;;65.20;40.37;;;;;;;;;;5015235;28;20234;-59
2021/05/01 00:15:27;;;;;;;67.03;42.80;;;;;;;;;;5015256;28;20220;-60
2021/05/01 00:17:53;;;;;;;60.73;39.73;;;;;;;;;;5015157;28;20236;-60
2021/05/01 00:20:20;;;;;;;63.63;40.63;;;;;;;;;;5015073;28;20203;-59
2021/05/01 00:22:46;;;;;;;62.13;41.67;;;;;;;;;;5014824;28;20743;-59
2021/05/01 00:25:13;;;;;;;65.20;41.53;;;;;;;;;;5015236;28;20208;-59
2021/05/01 00:27:42;;;;;;;65.03;42.63;;;;;;;;;;5014955;28;20681;-58
2021/05/01 00:30:08;;;;;;;66.47;43.63;;;;;;;;;;5014702;28;20232;-57
2021/05/01 00:32:36;;;;;;;75.07;44.57;;;;;;;;;;5015091;28;20228;-60
2021/05/01 00:35:03;;;;;;;67.00;42.33;;;;;;;;;;5014831;28;20239;-59
2021/05/01 00:37:29;;;;;;;67.87;42.93;;;;;;;;;;5014880;28;20262;-58
2021/05/01 00:39:56;;;;;;;70.83;44.60;;;;;;;;;;5014525;28;20610;-59
2021/05/01 00:42:22;;;;;;;74.67;45.30;;;;;;;;;;5014895;28;20228;-58
2021/05/01 00:44:49;;;;;;;68.23;44.43;;;;;;;;;;5014450;28;20215;-57
2021/05/01 00:47:15;;;;;;;68.40;43.93;;;;;;;;;;5014790;28;20215;-59
2021/05/01 00:49:43;;;;;;;70.63;45.03;;;;;;;;;;5014283;28;20606;-57
2021/05/01 00:52:09;;;;;;;65.50;43.87;;;;;;;;;;5014927;28;20228;-57
2021/05/01 00:54:36;;;;;;;63.00;40.63;;;;;;;;;;5015887;28;20595;-57
2021/05/01 00:57:02;;;;;;;64.57;41.70;;;;;;;;;;5015709;28;20209;-59
2021/05/01 00:59:29;;;;;;;69.97;43.47;;;;;;;;;;5014304;28;20204;-60
2021/05/01 01:01:58;;;;;;;66.67;40.83;;;;;;;;;;5014229;28;20667;-57
2021/05/01 01:04:24;;;;;;;66.57;42.83;;;;;;;;;;5014395;28;20218;-53
2021/05/01 01:06:51;;;;;;;66.53;41.47;;;;;;;;;;5014482;28;20211;-56
2021/05/01 01:09:18;;;;;;;66.37;42.10;;;;;;;;;;5014605;28;20251;-58
2021/05/01 01:11:45;;;;;;;69.10;43.63;;;;;;;;;;5014092;28;20224;-56
2021/05/01 01:14:13;;;;;;;68.43;44.73;;;;;;;;;;5013280;28;20215;-52
2021/05/01 01:16:40;;;;;;;71.77;45.40;;;;;;;;;;5014177;28;20243;-57
2021/05/01 01:19:06;;;;;;;74.70;46.17;;;;;;;;;;5013953;28;20211;-57
2021/05/01 01:21:39;;;;;;;76.53;48.20;;;;;;;;;;5013732;28;20213;-57
2021/05/01 01:24:07;;;;;;;74.37;47.83;;;;;;;;;;5013724;28;20211;-58
2021/05/01 01:26:35;;;;;;;78.60;48.43;;;;;;;;;;5013598;28;20691;-58
2021/05/01 01:29:01;;;;;;;80.57;49.37;;;;;;;;;;5013445;28;20663;-58
2021/05/01 01:31:28;;;;;;;75.97;47.60;;;;;;;;;;5013597;28;20214;-57
2021/05/01 01:33:54;;;;;;;77.63;45.20;;;;;;;;;;5013614;28;20204;-56
2021/05/01 01:36:21;;;;;;;81.97;48.40;;;;;;;;;;5013557;28;20209;-56
2021/05/01 01:38:47;;;;;;;83.73;52.70;;;;;;;;;;5013506;28;20234;-53
2021/05/01 01:41:15;;;;;;;83.43;51.00;;;;;;;;;;5013114;28;20207;-58
2021/05/01 01:43:41;;;;;;;86.27;51.30;;;;;;;;;;5013612;28;20203;-56
2021/05/01 01:46:08;;;;;;;84.97;51.23;;;;;;;;;;5013424;28;20266;-56
2021/05/01 01:48:34;;;;;;;86.97;50.07;;;;;;;;;;5014020;28;20214;-57
2021/05/01 01:51:01;;;;;;;82.97;52.43;;;;;;;;;;5013536;28;20333;-59
2021/05/01 01:53:28;;;;;;;84.63;52.43;;;;;;;;;;5013554;28;20266;-57
2021/05/01 01:55:54;;;;;;;96.27;56.73;;;;;;;;;;5012835;28;20211;-58
2021/05/01 01:58:22;;;;;;;92.93;55.93;;;;;;;;;;5013049;28;20214;-60
2021/05/01 02:00:51;;;;;;;90.63;53.83;;;;;;;;;;5012966;28;20215;-56
2021/05/01 02:03:18;;;;;;;86.00;51.43;;;;;;;;;;5013312;28;20229;-59
2021/05/01 02:05:45;;;;;;;94.40;54.97;;;;;;;;;;5013545;28;20219;-56
2021/05/01 02:08:12;;;;;;;102.20;58.50;;;;;;;;;;5013752;28;20207;-59
2021/05/01 02:10:39;;;;;;;93.83;54.97;;;;;;;;;;5013360;28;20699;-59
2021/05/01 02:13:06;;;;;;;89.23;53.23;;;;;;;;;;5012864;28;20943;-58
2021/05/01 02:15:33;;;;;;;91.43;54.00;;;;;;;;;;5013161;28;20261;-59
2021/05/01 02:18:00;;;;;;;99.47;58.07;;;;;;;;;;5012883;28;20458;-60
2021/05/01 02:20:28;;;;;;;92.87;55.07;;;;;;;;;;5012542;28;20270;-59
2021/05/01 02:22:56;;;;;;;93.00;55.30;;;;;;;;;;5012509;28;20738;-57
2021/05/01 02:25:23;;;;;;;90.83;55.23;;;;;;;;;;5011781;28;20207;-58
2021/05/01 02:27:50;;;;;;;100.27;56.80;;;;;;;;;;5012717;28;20279;-59
2021/05/01 02:30:17;;;;;;;103.00;59.60;;;;;;;;;;5012296;28;20231;-57
2021/05/01 02:32:45;;;;;;;97.87;56.40;;;;;;;;;;5012665;28;20235;-59
2021/05/01 02:35:13;;;;;;;94.70;55.97;;;;;;;;;;5012851;28;20446;-59
2021/05/01 02:37:40;;;;;;;91.60;54.63;;;;;;;;;;5012469;28;20262;-59
2021/05/01 02:40:07;;;;;;;95.27;54.87;;;;;;;;;;5012326;28;20209;-59
2021/05/01 02:42:34;;;;;;;95.23;56.20;;;;;;;;;;5012529;28;20228;-58
2021/05/01 02:45:01;;;;;;;95.57;54.87;;;;;;;;;;5012454;28;20207;-59
2021/05/01 02:47:27;;;;;;;97.43;56.40;;;;;;;;;;5012235;28;20205;-59
2021/05/01 02:49:54;;;;;;;98.63;55.90;;;;;;;;;;5011901;28;20231;-57
2021/05/01 02:52:21;;;;;;;91.53;53.17;;;;;;;;;;5012464;28;20232;-59
2021/05/01 02:54:47;;;;;;;94.40;55.33;;;;;;;;;;5012420;28;20275;-58
2021/05/01 02:57:14;;;;;;;106.87;59.17;;;;;;;;;;5012436;28;20204;-57
2021/05/01 02:59:40;;;;;;;103.93;57.33;;;;;;;;;;5012016;28;20215;-56
2021/05/01 03:02:07;;;;;;;101.47;56.37;;;;;;;;;;5012175;28;20233;-58
2021/05/01 03:04:33;;;;;;;101.83;56.60;;;;;;;;;;5012014;28;20694;-59
2021/05/01 03:07:01;;;;;;;105.10;58.53;;;;;;;;;;5012420;28;20266;-56
2021/05/01 03:09:27;;;;;;;104.90;57.33;;;;;;;;;;5012118;28;20231;-58
2021/05/01 03:11:54;;;;;;;101.50;55.60;;;;;;;;;;5012121;28;20234;-55
2021/05/01 03:14:20;;;;;;;108.63;58.97;;;;;;;;;;5012332;28;20213;-55
2021/05/01 03:16:47;;;;;;;112.10;58.57;;;;;;;;;;5011892;28;20254;-59
2021/05/01 03:19:13;;;;;;;106.77;57.83;;;;;;;;;;5011911;28;20211;-55
2021/05/01 03:21:40;;;;;;;112.70;58.23;;;;;;;;;;5011820;28;20227;-57
2021/05/01 03:24:09;;;;;;;109.47;58.83;;;;;;;;;;5012126;28;20566;-59
2021/05/01 03:26:35;;;;;;;113.17;60.27;;;;;;;;;;5011746;28;20674;-59
2021/05/01 03:29:02;;;;;;;106.97;57.90;;;;;;;;;;5011938;28;20244;-57
2021/05/01 03:31:28;;;;;;;104.03;57.43;;;;;;;;;;5011503;28;20237;-58
2021/05/01 03:33:55;;;;;;;103.40;55.97;;;;;;;;;;5012228;28;20684;-56
2021/05/01 03:36:21;;;;;;;103.37;55.57;;;;;;;;;;5012520;28;20212;-58
2021/05/01 03:38:48;;;;;;;102.30;57.70;;;;;;;;;;5015811;28;20207;-58
2021/05/01 03:41:15;;;;;;;104.00;56.17;;;;;;;;;;5015590;28;20209;-60
2021/05/01 03:43:42;;;;;;;100.60;54.70;;;;;;;;;;5015760;28;20283;-58
2021/05/01 03:46:08;;;;;;;98.23;54.20;;;;;;;;;;5015855;28;20265;-58
2021/05/01 03:48:35;;;;;;;105.17;57.23;;;;;;;;;;5015800;28;20668;-60
2021/05/01 03:51:03;;;;;;;113.17;60.07;;;;;;;;;;5015464;28;20229;-58
2021/05/01 03:53:30;;;;;;;115.23;57.93;;;;;;;;;;5015658;28;20227;-60
2021/05/01 03:55:56;;;;;;;109.77;59.93;;;;;;;;;;5015453;28;20270;-56
2021/05/01 03:58:24;;;;;;;104.30;57.37;;;;;;;;;;5015469;28;20215;-59
2021/05/01 04:00:51;;;;;;;111.47;57.40;;;;;;;;;;5014900;28;20210;-52
2021/05/01 04:03:17;;;;;;;104.97;56.20;;;;;;;;;;5015441;28;20235;-56
2021/05/01 04:05:44;;;;;;;108.50;58.63;;;;;;;;;;5015249;28;20213;-52
2021/05/01 04:08:10;;;;;;;109.67;57.87;;;;;;;;;;5015280;28;20207;-57
2021/05/01 04:10:37;;;;;;;110.20;57.60;;;;;;;;;;5014969;28;20269;-59
2021/05/01 04:13:03;;;;;;;114.80;58.57;;;;;;;;;;5014823;28;20239;-58
2021/05/01 04:15:31;;;;;;;115.93;57.00;;;;;;;;;;5014911;28;20218;-53
2021/05/01 04:17:57;;;;;;;104.87;56.53;;;;;;;;;;5015113;28;20212;-56
2021/05/01 04:20:24;;;;;;;113.50;58.97;;;;;;;;;;5015290;28;20203;-53
2021/05/01 04:22:50;;;;;;;109.80;57.80;;;;;;;;;;5015357;28;20229;-59
2021/05/01 04:25:17;;;;;;;112.93;58.30;;;;;;;;;;5015198;28;20215;-57
2021/05/01 04:27:43;;;;;;;108.17;57.60;;;;;;;;;;5015128;28;20207;-56
2021/05/01 04:30:12;;;;;;;109.97;57.33;;;;;;;;;;5015480;28;20236;-57
2021/05/01 04:32:39;;;;;;;111.00;58.53;;;;;;;;;;5015446;28;20277;-53
2021/05/01 04:35:06;;;;;;;108.97;57.30;;;;;;;;;;5014726;28;20273;-52
2021/05/01 04:37:33;;;;;;;110.00;57.17;;;;;;;;;;5014900;28;20208;-59
2021/05/01 04:39:59;;;;;;;115.33;58.57;;;;;;;;;;5016054;28;20204;-58
2021/05/01 04:42:26;;;;;;;113.43;58.90;;;;;;;;;;5015195;28;20596;-58
2021/05/01 04:44:52;;;;;;;115.23;56.10;;;;;;;;;;5016014;28;20207;-60
2021/05/01 04:47:19;;;;;;;116.13;58.13;;;;;;;;;;5014683;28;20666;-55
2021/05/01 04:49:46;;;;;;;111.33;56.03;;;;;;;;;;5013339;28;20227;-60
2021/05/01 04:52:13;;;;;;;115.90;58.53;;;;;;;;;;5014343;28;20743;-58
2021/05/01 04:54:39;;;;;;;119.53;59.40;;;;;;;;;;5014367;28;20218;-61
2021/05/01 04:57:06;;;;;;;119.43;56.40;;;;;;;;;;5014249;28;20203;-60
2021/05/01 04:59:33;;;;;;;111.73;56.53;;;;;;;;;;5014592;28;20209;-59
2021/05/01 05:01:59;;;;;;;112.50;55.73;;;;;;;;;;5014155;28;20721;-59
2021/05/01 05:04:26;;;;;;;108.33;53.73;;;;;;;;;;5014362;28;20204;-61
2021/05/01 05:06:53;;;;;;;119.70;55.80;;;;;;;;;;5014443;28;20556;-58
2021/05/01 05:09:20;;;;;;;119.60;54.97;;;;;;;;;;5014188;28;20216;-60
2021/05/01 05:11:46;;;;;;;115.57;56.00;;;;;;;;;;5013629;28;20230;-61
2021/05/01 05:14:13;;;;;;;110.40;56.27;;;;;;;;;;5014255;28;20211;-57
2021/05/01 05:16:39;;;;;;;113.57;55.30;;;;;;;;;;5014230;28;20212;-59
2021/05/01 05:19:06;;;;;;;106.97;52.50;;;;;;;;;;5013919;28;20230;-59
2021/05/01 05:21:32;;;;;;;108.47;53.77;;;;;;;;;;5013766;28;20199;-60
2021/05/01 05:23:59;;;;;;;97.27;52.17;;;;;;;;;;5013876;28;20208;-60
2021/05/01 05:26:26;;;;;;;88.77;46.73;;;;;;;;;;5014077;28;20217;-59
2021/05/01 05:28:53;;;;;;;90.10;49.77;;;;;;;;;;5013946;28;20243;-60
2021/05/01 05:31:19;;;;;;;92.40;48.93;;;;;;;;;;5013630;28;20227;-60
2021/05/01 05:33:46;;;;;;;90.83;48.07;;;;;;;;;;5013966;28;20210;-58
2021/05/01 05:36:12;;;;;;;83.43;47.17;;;;;;;;;;5013904;28;20214;-59
2021/05/01 05:38:39;;;;;;;77.90;44.40;;;;;;;;;;5013633;28;20215;-61
2021/05/01 05:41:06;;;;;;;79.37;44.43;;;;;;;;;;5013504;28;20203;-59
2021/05/01 05:43:34;;;;;;;81.20;45.13;;;;;;;;;;5013451;28;20736;-60
2021/05/01 05:46:11;;;;;;;77.30;43.23;;;;;;;;;;5013567;28;20304;-60
2021/05/01 05:48:37;;;;;;;80.77;44.17;;;;;;;;;;5013384;28;20215;-60
2021/05/01 05:51:04;;;;;;;72.97;43.57;;;;;;;;;;5012943;28;20229;-60
2021/05/01 05:53:31;;;;;;;73.50;41.73;;;;;;;;;;5013495;28;20290;-59
2021/05/01 05:55:57;;;;;;;69.97;41.33;;;;;;;;;;5013305;28;20677;-60
2021/05/01 05:58:25;;;;;;;67.30;39.93;;;;;;;;;;5013178;28;20204;-61
2021/05/01 06:00:51;;;;;;;69.23;41.20;;;;;;;;;;5013071;28;20200;-61
2021/05/01 06:03:19;;;;;;;76.17;41.37;;;;;;;;;;5013108;28;20231;-57
2021/05/01 06:05:47;;;;;;;74.20;44.23;;;;;;;;;;5013086;28;20213;-56
2021/05/01 06:08:14;;;;;;;70.33;43.60;;;;;;;;;;5013346;28;20253;-56
2021/05/01 06:10:40;;;;;;;79.43;45.80;;;;;;;;;;5013181;28;20237;-59
2021/05/01 06:13:09;;;;;;;74.93;43.90;;;;;;;;;;5012913;28;20617;-60
2021/05/01 06:15:36;;;;;;;69.53;43.70;;;;;;;;;;5012981;28;20213;-54
2021/05/01 06:18:03;;;;;;;77.60;44.87;;;;;;;;;;5012919;28;20212;-59
2021/05/01 06:20:30;;;;;;;86.00;47.20;;;;;;;;;;5012448;28;20207;-58
2021/05/01 06:22:58;;;;;;;72.17;44.47;;;;;;;;;;5012947;28;20234;-58
2021/05/01 06:25:25;;;;;;;74.63;43.30;;;;;;;;;;5013088;28;20207;-59
2021/05/01 06:27:52;;;;;;;77.13;42.97;;;;;;;;;;5013218;28;20209;-60
2021/05/01 06:30:19;;;;;;;80.53;43.73;;;;;;;;;;5013024;28;20229;-60
2021/05/01 06:32:47;;;;;;;77.43;44.23;;;;;;;;;;5012914;28;20731;-59
2021/05/01 06:35:13;;;;;;;65.03;37.83;;;;;;;;;;5012822;28;20210;-58
2021/05/01 06:37:40;;;;;;;62.63;37.97;;;;;;;;;;5013003;28;20207;-59
2021/05/01 06:40:09;;;;;;;59.47;34.50;;;;;;;;;;5013122;28;20580;-58
2021/05/01 06:42:37;;;;;;;56.40;35.53;;;;;;;;;;5013232;28;20299;-59
2021/05/01 06:45:05;;;;;;;56.57;33.47;;;;;;;;;;5013579;28;20667;-60
2021/05/01 06:47:32;;;;;;;54.67;33.73;;;;;;;;;;5013577;28;20210;-59
2021/05/01 06:50:04;;;;;;;52.80;34.67;;;;;;;;;;5013247;28;20230;-57
2021/05/01 06:52:31;;;;;;;51.93;34.37;;;;;;;;;;5012595;28;20227;-56
2021/05/01 06:55:00;;;;;;;59.60;37.80;;;;;;;;;;5012445;28;20280;-59
2021/05/01 06:57:27;;;;;;;62.40;37.27;;;;;;;;;;5012362;28;20305;-60
2021/05/01 06:59:54;;;;;;;57.50;38.10;;;;;;;;;;5010033;28;20213;-61
2021/05/01 07:02:25;;;;;;;57.80;34.30;;;;;;;;;;5012339;28;20314;-60
2021/05/01 07:04:52;;;;;;;56.20;35.80;;;;;;;;;;5007671;28;20291;-59
2021/05/01 07:07:21;;;;;;;61.70;36.70;;;;;;;;;;5011735;28;20207;-60
2021/05/01 07:09:47;;;;;;;60.97;38.10;;;;;;;;;;5011948;28;20306;-60
2021/05/01 07:12:14;;;;;;;54.43;29.57;;;;;;;;;;5015534;28;20230;-58
2021/05/01 07:14:41;;;;;;;49.77;27.90;;;;;;;;;;5018506;28;20263;-59
2021/05/01 07:17:08;;;;;;;58.00;32.40;;;;;;;;;;5018641;28;20693;-58
2021/05/01 07:19:34;;;;;;;57.07;33.87;;;;;;;;;;5015515;28;20206;-58
2021/05/01 07:22:02;;;;;;;54.60;34.13;;;;;;;;;;5017837;28;20677;-58
2021/05/01 07:24:29;;;;;;;46.87;30.63;;;;;;;;;;5018254;28;20584;-58
2021/05/01 07:26:56;;;;;;;48.07;31.53;;;;;;;;;;5017942;28;20202;-58
2021/05/01 07:29:24;;;;;;;51.13;29.03;;;;;;;;;;5018264;28;20211;-61
2021/05/01 07:31:52;;;;;;;47.50;30.77;;;;;;;;;;5018150;28;20239;-59
2021/05/01 07:34:21;;;;;;;52.93;31.47;;;;;;;;;;5018132;28;20260;-59
2021/05/01 07:36:48;;;;;;;54.03;33.33;;;;;;;;;;5018217;28;20217;-60
2021/05/01 07:39:16;;;;;;;51.17;33.07;;;;;;;;;;5017792;28;20675;-60
2021/05/01 07:41:45;;;;;;;56.10;34.37;;;;;;;;;;5017832;28;20230;-60
2021/05/01 07:44:12;;;;;;;55.73;35.40;;;;;;;;;;5017741;28;20207;-60
2021/05/01 07:46:39;;;;;;;44.60;28.60;;;;;;;;;;5018058;28;20256;-61
2021/05/01 07:49:07;;;;;;;47.50;29.33;;;;;;;;;;5017990;28;20577;-60
2021/05/01 07:51:35;;;;;;;47.47;30.07;;;;;;;;;;5017455;28;20223;-58
2021/05/01 07:54:01;;;;;;;45.47;27.73;;;;;;;;;;5017953;28;20218;-60
2021/05/01 07:56:28;;;;;;;53.97;31.87;;;;;;;;;;5018083;28;20215;-58
2021/05/01 07:58:56;;;;;;;39.30;26.80;;;;;;;;;;5018361;28;20203;-59
2021/05/01 08:01:23;;;;;;;38.10;25.60;;;;;;;;;;5017854;28;20289;-59
2021/05/01 08:03:49;;;;;;;44.50;27.23;;;;;;;;;;5018169;28;20210;-60
2021/05/01 08:06:17;;;;;;;39.07;26.13;;;;;;;;;;5018309;28;20266;-62
2021/05/01 08:08:44;;;;;;;40.53;24.67;;;;;;;;;;5018722;28;20238;-63
2021/05/01 08:11:11;;;;;;;36.70;27.60;;;;;;;;;;5018456;28;20658;-62
2021/05/01 08:13:37;;;;;;;36.57;27.23;;;;;;;;;;5018454;28;20242;-63
2021/05/01 08:16:05;;;;;;;38.23;26.43;;;;;;;;;;5019398;28;20202;-63
2021/05/01 08:18:31;;;;;;;39.50;25.97;;;;;;;;;;5020618;28;20242;-62
2021/05/01 08:20:58;;;;;;;32.50;24.83;;;;;;;;;;5021379;28;20200;-60
2021/05/01 08:23:24;;;;;;;34.70;23.77;;;;;;;;;;5019705;28;20228;-60
2021/05/01 08:25:51;;;;;;;35.70;25.37;;;;;;;;;;5015271;28;20583;-60
2021/05/01 08:28:18;;;;;;;33.97;24.97;;;;;;;;;;5015950;28;20214;-62
2021/05/01 08:30:44;;;;;;;34.00;23.83;;;;;;;;;;5014871;28;20227;-63
2021/05/01 08:33:12;;;;;;;32.27;24.93;;;;;;;;;;5014783;28;20234;-62
2021/05/01 08:35:38;;;;;;;32.43;24.93;;;;;;;;;;5014431;28;20208;-61
2021/05/01 08:38:05;;;;;;;38.87;27.90;;;;;;;;;;5015901;28;20238;-60
2021/05/01 08:40:32;;;;;;;41.90;27.60;;;;;;;;;;5015108;28;20249;-62
2021/05/01 08:42:59;;;;;;;39.73;28.37;;;;;;;;;;5014425;28;20726;-63
2021/05/01 08:45:27;;;;;;;35.53;26.47;;;;;;;;;;5014261;28;20251;-62
2021/05/01 08:47:54;;;;;;;34.90;25.57;;;;;;;;;;5014427;28;20236;-61
2021/05/01 08:50:35;;;;;;;30.87;22.40;;;;;;;;;;5014305;28;20602;-61
2021/05/01 08:53:02;;;;;;;31.37;22.47;;;;;;;;;;5014489;28;20229;-64
2021/05/01 08:55:30;;;;;;;34.67;24.73;;;;;;;;;;5014309;28;20283;-62
2021/05/01 08:57:56;;;;;;;34.27;22.07;;;;;;;;;;5014084;28;20212;-62
2021/05/01 09:00:23;;;;;;;21.30;16.43;;;;;;;;;;5013673;28;20279;-60
2021/05/01 09:02:50;;;;;;;20.50;14.80;;;;;;;;;;5013743;28;20229;-60
2021/05/01 09:05:18;;;;;;;23.20;16.23;;;;;;;;;;5014205;28;20210;-65
2021/05/01 09:07:46;;;;;;;21.97;16.27;;;;;;;;;;5014091;28;20207;-65
2021/05/01 09:10:13;;;;;;;30.83;22.03;;;;;;;;;;5013439;28;20233;-65
2021/05/01 09:12:40;;;;;;;27.57;19.93;;;;;;;;;;5013730;28;20244;-64
2021/05/01 09:15:08;;;;;;;27.83;19.50;;;;;;;;;;5013976;28;20217;-64
2021/05/01 09:17:35;;;;;;;28.13;20.07;;;;;;;;;;5013493;28;20207;-57
2021/05/01 09:20:02;;;;;;;23.80;19.73;;;;;;;;;;5013793;28;20213;-52
2021/05/01 09:22:28;;;;;;;23.70;16.33;;;;;;;;;;5013560;28;20253;-57
2021/05/01 09:25:06;;;;;;;25.17;15.93;;;;;;;;;;5013605;28;20211;-58
2021/05/01 09:27:33;;;;;;;22.37;14.60;;;;;;;;;;5013417;28;20245;-59
2021/05/01 09:30:12;;;;;;;19.83;15.10;;;;;;;;;;5012388;28;20679;-53
2021/05/01 09:32:38;;;;;;;20.67;14.97;;;;;;;;;;5013443;28;20996;-58
2021/05/01 09:35:06;;;;;;;17.63;14.57;;;;;;;;;;5012588;28;20674;-56
2021/05/01 09:37:33;;;;;;;18.97;15.67;;;;;;;;;;5013439;28;20300;-64
2021/05/01 09:40:00;;;;;;;20.60;14.47;;;;;;;;;;5012777;28;20589;-62
2021/05/01 09:42:29;;;;;;;17.23;13.40;;;;;;;;;;5012948;28;20234;-66
2021/05/01 09:45:06;;;;;;;20.17;13.23;;;;;;;;;;5013015;28;20244;-64
2021/05/01 09:47:33;;;;;;;17.73;13.80;;;;;;;;;;5012797;28;20213;-63
2021/05/01 09:50:00;;;;;;;16.70;13.07;;;;;;;;;;5012834;28;20211;-65
2021/05/01 09:52:27;;;;;;;19.13;13.70;;;;;;;;;;5012950;28;20239;-64
2021/05/01 09:54:53;;;;;;;17.23;12.60;;;;;;;;;;5012858;28;20757;-65
2021/05/01 09:57:21;;;;;;;20.30;14.43;;;;;;;;;;5013101;28;20218;-64
2021/05/01 09:59:49;;;;;;;14.43;12.80;;;;;;;;;;5012465;28;20781;-65
2021/05/01 10:02:17;;;;;;;19.60;14.67;;;;;;;;;;5015194;28;20721;-66
2021/05/01 10:05:00;;;;;;;21.07;14.93;;;;;;;;;;5032450;28;20216;-65
2021/05/01 10:07:26;;;;;;;18.67;13.90;;;;;;;;;;5032484;28;20208;-56
2021/05/01 10:09:55;;;;;;;20.37;15.00;;;;;;;;;;5031962;28;20206;-55
2021/05/01 10:12:22;;;;;;;21.23;14.07;;;;;;;;;;5032297;28;20759;-58
2021/05/01 10:14:50;;;;;;;19.53;13.10;;;;;;;;;;5032233;28;20213;-55
2021/05/01 10:17:18;;;;;;;16.93;13.00;;;;;;;;;;5032408;28;20210;-52
2021/05/01 10:20:02;;;;;;;14.10;11.87;;;;;;;;;;5031801;28;20206;-55
2021/05/01 10:22:30;;;;;;;13.70;10.93;;;;;;;;;;5032133;28;20229;-54
2021/05/01 10:24:57;;;;;;;15.83;12.03;;;;;;;;;;5032522;28;20214;-58
2021/05/01 10:27:24;;;;;;;14.57;11.57;;;;;;;;;;5032113;28;20229;-59
2021/05/01 10:30:03;;;;;;;14.63;12.27;;;;;;;;;;5031768;28;20605;-64
2021/05/01 10:32:32;;;;;;;17.67;12.40;;;;;;;;;;5031729;28;20232;-55
2021/05/01 10:34:58;;;;;;;16.97;13.20;;;;;;;;;;5032238;28;20232;-66
2021/05/01 10:37:28;;;;;;;18.17;13.13;;;;;;;;;;5032470;28;20209;-66
2021/05/01 10:39:56;;;;;;;15.77;11.63;;;;;;;;;;5031626;28;20213;-66
2021/05/01 10:42:23;;;;;;;15.70;11.53;;;;;;;;;;5031915;28;20237;-67
2021/05/01 10:44:55;;;;;;;14.47;11.33;;;;;;;;;;5031931;28;20620;-64
2021/05/01 10:47:22;;;;;;;13.10;10.53;;;;;;;;;;5031239;28;20264;-64
2021/05/01 10:49:49;;;;;;;12.67;10.13;;;;;;;;;;5031452;28;20206;-64
2021/05/01 10:52:16;;;;;;;14.80;11.93;;;;;;;;;;5031832;28;20702;-61
2021/05/01 10:54:59;;;;;;;14.33;11.30;;;;;;;;;;5031882;28;20205;-65
2021/05/01 10:57:26;;;;;;;13.37;10.77;;;;;;;;;;5031605;28;20204;-62
2021/05/01 10:59:59;;;;;;;15.50;11.60;;;;;;;;;;5031705;28;20206;-60
2021/05/01 11:02:32;;;;;;;13.53;11.47;;;;;;;;;;5031791;28;20236;-59
2021/05/01 11:05:00;;;;;;;13.77;10.53;;;;;;;;;;5031890;28;20206;-62
2021/05/01 11:07:39;;;;;;;16.83;10.07;;;;;;;;;;5031915;28;20210;-63
2021/05/01 11:10:07;;;;;;;13.30;9.77;;;;;;;;;;5031271;28;20216;-64
2021/05/01 11:12:36;;;;;;;11.97;10.67;;;;;;;;;;5031706;28;20316;-64
2021/05/01 11:15:05;;;;;;;15.33;11.07;;;;;;;;;;5032249;28;20588;-65
2021/05/01 11:17:35;;;;;;;13.30;11.17;;;;;;;;;;5032765;28;20214;-64
2021/05/01 11:20:04;;;;;;;13.30;10.70;;;;;;;;;;5031860;28;20214;-66
2021/05/01 11:22:33;;;;;;;11.53;9.93;;;;;;;;;;5031935;28;20284;-61
2021/05/01 11:24:59;;;;;;;12.60;9.60;;;;;;;;;;5031510;28;20256;-64
2021/05/01 11:27:26;;;;;;;12.10;9.67;;;;;;;;;;5031736;28;20667;-64
2021/05/01 11:29:52;;;;;;;11.13;9.83;;;;;;;;;;5031331;28;20206;-64
2021/05/01 11:32:19;;;;;;;11.67;8.57;;;;;;;;;;5032262;28;20300;-63
2021/05/01 11:34:50;;;;;;;10.20;8.87;;;;;;;;;;5032677;28;20595;-64
2021/05/01 11:37:17;;;;;;;13.27;9.60;;;;;;;;;;5032378;28;20214;-64
2021/05/01 11:39:43;;;;;;;12.20;9.27;;;;;;;;;;5031139;28;20210;-63
2021/05/01 11:42:10;;;;;;;12.70;9.57;;;;;;;;;;5031683;28;20241;-65
2021/05/01 11:44:37;;;;;;;14.73;9.33;;;;;;;;;;5032421;28;20215;-64
2021/05/01 11:47:05;;;;;;;12.90;9.20;;;;;;;;;;5033030;28;20679;-64
2021/05/01 11:49:32;;;;;;;14.03;9.03;;;;;;;;;;5031735;28;20632;-64
2021/05/01 11:52:14;;;;;;;13.37;9.47;;;;;;;;;;5031651;28;20226;-63
2021/05/01 11:54:52;;;;;;;10.17;8.87;;;;;;;;;;5031668;28;20643;-63
2021/05/01 11:57:21;;;;;;;12.67;9.43;;;;;;;;;;5031517;28;20244;-63
2021/05/01 11:59:48;;;;;;;9.93;8.03;;;;;;;;;;5034725;28;20229;-64
2021/05/01 12:02:15;;;;;;;10.13;8.20;;;;;;;;;;5035327;28;20234;-64
2021/05/01 12:04:49;;;;;;;8.83;7.20;;;;;;;;;;5035037;28;20210;-63
2021/05/01 12:07:19;;;;;;;9.33;7.20;;;;;;;;;;5035336;28;20209;-64
2021/05/01 12:09:48;;;;;;;8.13;7.33;;;;;;;;;;5034876;28;20211;-61
2021/05/01 12:12:14;;;;;;;9.77;7.20;;;;;;;;;;5034948;28;20252;-63
2021/05/01 12:14:41;;;;;;;9.37;7.43;;;;;;;;;;5035018;28;20208;-63
2021/05/01 12:17:11;;;;;;;11.23;7.20;;;;;;;;;;5034796;28;20675;-65
2021/05/01 12:19:42;;;;;;;10.37;7.87;;;;;;;;;;5034509;28;20267;-65
2021/05/01 12:22:26;;;;;;;9.90;7.43;;;;;;;;;;5034762;28;20261;-64
2021/05/01 12:24:54;;;;;;;11.10;8.80;;;;;;;;;;5034458;28;20806;-64
2021/05/01 12:27:39;;;;;;;12.53;9.23;;;;;;;;;;5034664;28;20246;-65
2021/05/01 12:30:06;;;;;;;12.67;8.80;;;;;;;;;;5034275;28;20207;-64
2021/05/01 12:32:32;;;;;;;10.77;8.50;;;;;;;;;;5034539;28;20230;-64
2021/05/01 12:35:00;;;;;;;9.27;7.80;;;;;;;;;;5034379;28;20625;-63
2021/05/01 12:37:28;;;;;;;12.47;7.97;;;;;;;;;;5034215;28;20261;-64
2021/05/01 12:40:01;;;;;;;10.43;8.40;;;;;;;;;;5033689;28;20663;-64
2021/05/01 12:42:28;;;;;;;9.53;8.57;;;;;;;;;;5034339;28;20309;-63
2021/05/01 12:44:55;;;;;;;11.40;8.43;;;;;;;;;;5034057;28;20728;-64
2021/05/01 12:47:40;;;;;;;8.77;7.13;;;;;;;;;;5034482;28;20212;-63
2021/05/01 12:50:17;;;;;;;8.23;7.23;;;;;;;;;;5033570;28;20218;-64
2021/05/01 12:52:44;;;;;;;10.97;8.20;;;;;;;;;;5034184;28;20222;-64
2021/05/01 12:55:13;;;;;;;10.73;8.47;;;;;;;;;;5034263;28;20210;-65
2021/05/01 12:57:40;;;;;;;8.63;7.40;;;;;;;;;;5033995;28;20202;-65
2021/05/01 13:00:26;;;;;;;8.67;7.37;;;;;;;;;;5033430;28;20218;-65
2021/05/01 13:03:16;;;;;;;10.30;7.37;;;;;;;;;;5033939;28;20230;-65
2021/05/01 13:05:44;;;;;;;9.07;6.90;;;;;;;;;;5034095;28;20284;-65
2021/05/01 13:08:21;;;;;;;11.10;7.57;;;;;;;;;;5034085;28;20211;-64
2021/05/01 13:10:49;;;;;;;9.63;7.70;;;;;;;;;;5031624;28;20663;-65
2021/05/01 13:13:16;;;;;;;14.13;8.17;;;;;;;;;;5033314;28;20241;-65
2021/05/01 13:16:01;;;;;;;10.10;7.87;;;;;;;;;;5033382;28;20260;-66
2021/05/01 13:18:28;;;;;;;12.17;9.00;;;;;;;;;;5034003;28;20214;-66
2021/05/01 13:21:03;;;;;;;10.97;8.77;;;;;;;;;;5032975;28;20202;-65
2021/05/01 13:23:34;;;;;;;10.03;8.03;;;;;;;;;;5033235;28;20240;-66
2021/05/01 13:26:02;;;;;;;8.73;7.20;;;;;;;;;;5033552;28;20207;-65
2021/05/01 13:28:29;;;;;;;9.20;7.17;;;;;;;;;;5033428;28;20217;-65
2021/05/01 13:30:55;;;;;;;11.57;7.77;;;;;;;;;;5032812;28;20228;-66
2021/05/01 13:33:22;;;;;;;10.53;8.87;;;;;;;;;;5032985;28;20228;-67
2021/05/01 13:35:50;;;;;;;9.43;8.03;;;;;;;;;;5033004;28;20588;-60
2021/05/01 13:38:17;;;;;;;12.23;8.63;;;;;;;;;;5033033;28;20214;-62
2021/05/01 13:40:44;;;;;;;14.33;9.47;;;;;;;;;;5032939;28;20209;-61
2021/05/01 13:43:12;;;;;;;12.37;9.03;;;;;;;;;;5032655;28;20226;-65
2021/05/01 13:45:45;;;;;;;12.63;9.53;;;;;;;;;;5033105;28;20226;-65
2021/05/01 13:48:11;;;;;;;15.23;9.60;;;;;;;;;;5032728;28;20258;-65
2021/05/01 13:50:45;;;;;;;9.67;8.67;;;;;;;;;;5009980;28;20304;-64
2021/05/01 13:53:18;;;;;;;10.33;8.60;;;;;;;;;;5012985;28;20322;-64
2021/05/01 13:55:45;;;;;;;12.27;9.50;;;;;;;;;;5013156;28;20218;-64
2021/05/01 13:58:15;;;;;;;12.77;9.53;;;;;;;;;;5012057;28;20203;-60
2021/05/01 14:00:42;;;;;;;10.20;9.13;;;;;;;;;;5011392;28;20204;-66
2021/05/01 14:03:13;;;;;;;10.50;9.33;;;;;;;;;;5011792;28;20238;-65
2021/05/01 14:05:40;;;;;;;10.03;8.67;;;;;;;;;;5012663;28;20207;-65
2021/05/01 14:08:07;;;;;;;10.60;8.37;;;;;;;;;;5012491;28;20219;-65
2021/05/01 14:10:33;;;;;;;9.83;8.80;;;;;;;;;;5011443;28;20228;-65
2021/05/01 14:13:00;;;;;;;8.97;8.03;;;;;;;;;;5012010;28;20237;-65
2021/05/01 14:15:29;;;;;;;9.70;8.10;;;;;;;;;;5012015;28;20253;-66
2021/05/01 14:18:03;;;;;;;10.13;7.90;;;;;;;;;;5012392;28;20239;-68
2021/05/01 14:20:30;;;;;;;8.90;8.00;;;;;;;;;;5011546;28;20206;-66
2021/05/01 14:22:57;;;;;;;9.63;8.10;;;;;;;;;;5012091;28;20226;-66